Time;durP1;ratioP1;P1;durP2;ratioP2;P2;SDS_P1;SDS_P2;PMS_P1;PMS_P2;Temp;Humidity;BMP_temperature;BMP_pressure;BME280_temperature;BME280_humidity;BME280_pressure;Samples;Min_cycle;Max_cycle;Signal;HPM_P1;HPM_P2
2023/12/11 00:00:18;;;;;;;1.45;0.68;;;18.50;48.40;;;;;;5149141;27;46684;-68
2023/12/11 00:02:44;;;;;;;0.70;0.70;;;18.40;48.50;;;;;;5149450;27;45337;-68
2023/12/11 00:05:11;;;;;;;0.70;0.70;;;18.40;48.50;;;;;;5149003;27;45267;-68
2023/12/11 00:07:38;;;;;;;1.10;0.60;;;18.40;48.60;;;;;;5150155;27;45491;-68
2023/12/11 00:10:06;;;;;;;1.65;0.68;;;18.40;48.70;;;;;;5148986;27;46707;-68
2023/12/11 00:12:33;;;;;;;0.82;0.60;;;18.40;48.70;;;;;;5149048;27;45256;-67
2023/12/11 00:15:01;;;;;;;2.08;0.60;;;18.40;48.70;;;;;;5148373;27;45391;-66
2023/12/11 00:17:28;;;;;;;0.95;0.70;;;18.40;48.80;;;;;;5148768;27;45387;-69
2023/12/11 00:19:55;;;;;;;0.93;0.60;;;18.30;48.80;;;;;;5148847;27;46664;-69
2023/12/11 00:22:22;;;;;;;1.00;0.70;;;18.30;48.80;;;;;;5146078;27;45339;-69
2023/12/11 00:24:49;;;;;;;0.95;0.60;;;18.30;48.90;;;;;;5146177;27;45245;-69
2023/12/11 00:27:16;;;;;;;0.50;0.50;;;18.30;48.90;;;;;;5148983;27;45417;-70
2023/12/11 00:29:43;;;;;;;0.52;0.52;;;18.30;49.00;;;;;;5148544;27;46303;-69
2023/12/11 00:32:11;;;;;;;0.65;0.60;;;18.30;49.00;;;;;;5148810;27;45350;-69
2023/12/11 00:34:38;;;;;;;0.98;0.60;;;18.30;49.10;;;;;;5148664;27;45198;-70
2023/12/11 00:37:05;;;;;;;0.77;0.52;;;18.30;49.20;;;;;;5148454;27;45490;-69
2023/12/11 00:39:32;;;;;;;0.75;0.68;;;18.30;49.20;;;;;;5148467;27;46745;-67
2023/12/11 00:41:59;;;;;;;0.88;0.55;;;18.20;49.20;;;;;;5148366;27;45373;-67
2023/12/11 00:44:25;;;;;;;0.52;0.50;;;18.20;49.30;;;;;;5147583;27;45267;-70
2023/12/11 00:46:52;;;;;;;1.38;0.57;;;18.20;49.30;;;;;;5148577;27;45317;-68
2023/12/11 00:49:20;;;;;;;0.60;0.60;;;18.20;49.40;;;;;;5148175;27;46676;-68
2023/12/11 00:51:48;;;;;;;0.75;0.50;;;18.20;49.50;;;;;;5148390;27;45320;-67
2023/12/11 00:54:15;;;;;;;1.08;0.40;;;18.20;49.50;;;;;;5147924;27;45287;-67
2023/12/11 00:56:42;;;;;;;0.60;0.50;;;18.20;50.20;;;;;;5147748;27;45325;-68
2023/12/11 00:59:09;;;;;;;0.40;0.40;;;18.10;49.60;;;;;;5148127;27;46650;-67
2023/12/11 01:01:36;;;;;;;0.43;0.43;;;18.10;49.60;;;;;;5147967;27;45357;-68
2023/12/11 01:04:03;;;;;;;0.75;0.60;;;18.10;49.80;;;;;;5148141;27;45418;-68
2023/12/11 01:06:31;;;;;;;0.52;0.50;;;18.10;49.70;;;;;;5148424;27;45300;-68
2023/12/11 01:08:58;;;;;;;0.60;0.60;;;18.10;49.70;;;;;;5148125;27;45325;-68
2023/12/11 01:11:24;;;;;;;0.40;0.40;;;18.10;49.80;;;;;;5148009;27;45404;-67
2023/12/11 01:13:51;;;;;;;0.40;0.40;;;18.10;49.80;;;;;;5148196;27;45233;-68
2023/12/11 01:16:18;;;;;;;0.60;0.50;;;18.00;49.80;;;;;;5148176;27;45314;-68
2023/12/11 01:18:45;;;;;;;0.57;0.57;;;18.10;50.00;;;;;;5147954;27;45479;-68
2023/12/11 01:21:12;;;;;;;1.02;0.50;;;18.00;50.00;;;;;;5148064;27;45240;-68
2023/12/11 01:23:40;;;;;;;0.45;0.30;;;18.00;50.10;;;;;;5148176;27;45406;-68
2023/12/11 01:26:07;;;;;;;0.52;0.47;;;18.00;50.20;;;;;;5148060;27;45284;-67
2023/12/11 01:28:34;;;;;;;0.35;0.35;;;18.00;50.20;;;;;;5147838;27;46564;-67
2023/12/11 01:31:01;;;;;;;0.50;0.50;;;18.00;50.20;;;;;;5147780;27;45332;-69
2023/12/11 01:33:28;;;;;;;1.13;0.43;;;18.00;50.30;;;;;;5148436;27;45321;-67
2023/12/11 01:35:54;;;;;;;0.73;0.50;;;18.00;50.30;;;;;;5147582;27;45512;-67
2023/12/11 01:38:22;;;;;;;0.52;0.52;;;18.00;50.30;;;;;;5147262;27;45365;-67
2023/12/11 01:40:50;;;;;;;0.70;0.40;;;17.90;50.20;;;;;;5147345;27;45285;-67
2023/12/11 01:43:17;;;;;;;0.40;0.40;;;17.90;50.30;;;;;;5147561;27;45300;-67
2023/12/11 01:45:44;;;;;;;0.73;0.60;;;17.90;50.30;;;;;;5147579;27;45333;-67
2023/12/11 01:48:11;;;;;;;0.43;0.40;;;17.90;50.30;;;;;;5147417;27;48517;-67
2023/12/11 01:50:38;;;;;;;0.57;0.50;;;17.90;50.30;;;;;;5147638;27;45238;-67
2023/12/11 01:53:05;;;;;;;0.60;0.50;;;17.90;50.30;;;;;;5147789;27;45152;-67
2023/12/11 01:55:31;;;;;;;0.55;0.32;;;17.90;50.40;;;;;;5149707;27;45365;-67
2023/12/11 01:58:00;;;;;;;0.50;0.50;;;17.90;50.30;;;;;;5151064;27;45311;-67
2023/12/11 02:00:27;;;;;;;0.30;0.30;;;17.90;50.40;;;;;;5151313;27;45511;-70
2023/12/11 02:02:54;;;;;;;0.70;0.28;;;17.80;50.40;;;;;;5151359;27;45315;-67
2023/12/11 02:05:21;;;;;;;0.47;0.47;;;17.80;50.50;;;;;;5151491;27;45360;-67
2023/12/11 02:07:48;;;;;;;2.22;0.40;;;17.80;50.40;;;;;;5150809;27;46383;-68
2023/12/11 02:10:15;;;;;;;0.30;0.30;;;17.80;50.50;;;;;;5150914;27;45679;-67
2023/12/11 02:12:42;;;;;;;0.80;0.50;;;17.80;50.60;;;;;;5151168;27;45398;-67
2023/12/11 02:15:11;;;;;;;0.22;0.22;;;17.80;50.60;;;;;;5150812;27;45360;-67
2023/12/11 02:17:37;;;;;;;0.38;0.38;;;17.80;50.60;;;;;;5150553;27;46414;-68
2023/12/11 02:20:06;;;;;;;0.50;0.38;;;17.70;50.70;;;;;;5150948;27;45334;-67
2023/12/11 02:22:32;;;;;;;0.30;0.30;;;17.70;50.70;;;;;;5150954;27;45177;-68
2023/12/11 02:25:00;;;;;;;0.75;0.52;;;17.70;50.80;;;;;;5150171;27;45307;-67
2023/12/11 02:27:28;;;;;;;0.50;0.40;;;17.70;50.70;;;;;;5150284;27;45490;-67
2023/12/11 02:29:56;;;;;;;0.40;0.40;;;17.70;50.70;;;;;;5148226;27;45319;-67
2023/12/11 02:32:23;;;;;;;0.20;0.20;;;17.70;50.70;;;;;;5150797;27;45497;-67
2023/12/11 02:34:49;;;;;;;0.30;0.30;;;17.70;51.40;;;;;;5151031;27;45357;-67
2023/12/11 02:37:16;;;;;;;0.28;0.20;;;17.70;50.80;;;;;;5149853;27;46674;-67
2023/12/11 02:39:45;;;;;;;0.40;0.40;;;17.70;50.90;;;;;;5150414;27;45313;-67
2023/12/11 02:42:12;;;;;;;0.30;0.30;;;17.70;50.70;;;;;;5150625;27;45365;-67
2023/12/11 02:44:40;;;;;;;0.30;0.30;;;17.70;50.80;;;;;;5150651;27;45460;-67
2023/12/11 02:47:07;;;;;;;0.28;0.20;;;17.60;50.90;;;;;;5150088;27;45267;-67
2023/12/11 02:49:33;;;;;;;0.52;0.20;;;17.60;50.80;;;;;;5150400;27;45303;-67
2023/12/11 02:52:00;;;;;;;0.25;0.20;;;17.60;50.80;;;;;;5150289;27;45376;-67
2023/12/11 02:54:27;;;;;;;0.30;0.30;;;17.60;51.00;;;;;;5150562;27;45463;-67
2023/12/11 02:56:54;;;;;;;0.30;0.30;;;17.60;50.80;;;;;;5150025;27;46495;-67
2023/12/11 02:59:21;;;;;;;0.38;0.38;;;17.60;50.90;;;;;;5150527;27;45172;-67
2023/12/11 03:01:49;;;;;;;0.20;0.20;;;17.60;50.90;;;;;;5150259;27;45256;-67
2023/12/11 03:04:16;;;;;;;0.57;0.40;;;17.60;50.90;;;;;;5150265;27;45356;-67
2023/12/11 03:06:43;;;;;;;0.30;0.30;;;17.60;51.00;;;;;;5148795;27;46253;-67
2023/12/11 03:09:10;;;;;;;0.63;0.30;;;17.60;51.00;;;;;;5149268;27;45308;-67
2023/12/11 03:11:36;;;;;;;0.40;0.40;;;17.60;51.00;;;;;;5150082;27;45278;-67
2023/12/11 03:14:03;;;;;;;0.32;0.25;;;17.60;51.00;;;;;;5150131;27;45484;-67
2023/12/11 03:16:30;;;;;;;0.50;0.30;;;17.60;51.00;;;;;;5149583;27;45325;-69
2023/12/11 03:18:58;;;;;;;0.63;0.30;;;17.60;51.10;;;;;;5149685;27;45372;-67
2023/12/11 03:21:25;;;;;;;0.30;0.30;;;17.50;51.00;;;;;;5150410;27;45441;-67
2023/12/11 03:23:52;;;;;;;0.40;0.40;;;17.50;50.90;;;;;;5150135;27;45256;-67
2023/12/11 03:26:19;;;;;;;0.47;0.30;;;17.50;51.10;;;;;;5149562;27;45468;-67
2023/12/11 03:28:46;;;;;;;0.20;0.20;;;17.50;51.10;;;;;;5150067;27;45437;-67
2023/12/11 03:31:12;;;;;;;0.20;0.20;;;17.50;51.10;;;;;;5149676;27;45316;-67
2023/12/11 03:33:38;;;;;;;0.25;0.20;;;17.50;51.10;;;;;;5150015;27;45547;-68
2023/12/11 03:36:07;;;;;;;0.30;0.30;;;17.50;51.80;;;;;;5148920;27;46795;-67
2023/12/11 03:38:34;;;;;;;0.40;0.40;;;17.40;51.40;;;;;;5149567;27;45257;-67
2023/12/11 03:41:01;;;;;;;0.30;0.30;;;17.40;51.10;;;;;;5149808;27;45533;-67
2023/12/11 03:43:28;;;;;;;0.85;0.40;;;17.40;51.10;;;;;;5149656;27;45471;-67
2023/12/11 03:45:55;;;;;;;0.35;0.20;;;17.40;51.10;;;;;;5149617;27;46182;-67
2023/12/11 03:48:22;;;;;;;0.20;0.20;;;17.40;51.20;;;;;;5149311;27;45288;-67
2023/12/11 03:50:49;;;;;;;0.30;0.30;;;17.40;51.50;;;;;;5148973;27;45278;-67
2023/12/11 03:53:17;;;;;;;0.40;0.40;;;17.40;51.30;;;;;;5149271;27;45264;-68
2023/12/11 03:55:44;;;;;;;0.20;0.20;;;17.40;51.80;;;;;;5148797;27;46631;-68
2023/12/11 03:58:11;;;;;;;0.20;0.20;;;17.40;51.40;;;;;;5149013;27;45278;-68
2023/12/11 04:00:38;;;;;;;0.20;0.20;;;17.40;51.30;;;;;;5149194;27;45238;-68
2023/12/11 04:03:05;;;;;;;0.47;0.30;;;17.40;51.20;;;;;;5149869;27;45277;-68
2023/12/11 04:05:32;;;;;;;0.47;0.40;;;17.40;51.40;;;;;;5148911;27;47399;-67
2023/12/11 04:07:58;;;;;;;0.13;0.13;;;17.40;51.40;;;;;;5148997;27;45307;-68
2023/12/11 04:10:27;;;;;;;0.25;0.25;;;17.40;51.30;;;;;;5149175;27;45339;-67
2023/12/11 04:12:54;;;;;;;0.75;0.30;;;17.50;51.20;;;;;;5149265;27;45321;-67
2023/12/11 04:15:21;;;;;;;0.30;0.30;;;17.50;51.10;;;;;;5148569;27;45253;-68
2023/12/11 04:17:48;;;;;;;0.20;0.20;;;17.60;51.00;;;;;;5148641;27;45302;-67
2023/12/11 04:20:14;;;;;;;0.30;0.25;;;17.70;51.50;;;;;;5148854;27;45290;-68
2023/12/11 04:22:41;;;;;;;0.20;0.20;;;17.70;50.70;;;;;;5149461;27;45374;-67
2023/12/11 04:25:08;;;;;;;0.30;0.30;;;17.90;50.60;;;;;;5148537;27;45370;-67
2023/12/11 04:27:36;;;;;;;0.35;0.25;;;17.90;50.20;;;;;;5148719;27;45426;-68
2023/12/11 04:30:04;;;;;;;0.32;0.22;;;18.10;50.10;;;;;;5148698;27;45393;-68
2023/12/11 04:32:31;;;;;;;0.45;0.40;;;18.10;49.90;;;;;;5148803;27;45368;-68
2023/12/11 04:34:58;;;;;;;0.20;0.20;;;18.20;49.80;;;;;;5148015;27;46341;-68
2023/12/11 04:37:25;;;;;;;0.28;0.20;;;18.30;49.60;;;;;;5148144;27;45354;-68
2023/12/11 04:39:51;;;;;;;0.32;0.32;;;18.40;49.40;;;;;;5148865;27;45376;-68
2023/12/11 04:42:18;;;;;;;0.10;0.10;;;18.40;49.20;;;;;;5148771;27;45481;-68
2023/12/11 04:44:47;;;;;;;0.65;0.20;;;18.50;49.10;;;;;;5148571;27;45391;-68
2023/12/11 04:47:13;;;;;;;0.20;0.20;;;18.60;48.90;;;;;;5148356;27;45294;-67
2023/12/11 04:49:42;;;;;;;0.25;0.25;;;18.70;48.80;;;;;;5148449;27;45183;-68
2023/12/11 04:52:09;;;;;;;0.20;0.10;;;18.80;48.70;;;;;;5148501;27;45359;-68
2023/12/11 04:54:36;;;;;;;1.67;0.22;;;18.80;48.60;;;;;;5148256;27;46412;-68
2023/12/11 04:57:03;;;;;;;0.52;0.40;;;18.90;48.50;;;;;;5148244;27;45252;-68
2023/12/11 04:59:30;;;;;;;0.52;0.20;;;19.00;48.40;;;;;;5148646;27;45167;-68
2023/12/11 05:01:58;;;;;;;0.20;0.20;;;19.00;48.30;;;;;;5148697;27;45428;-68
2023/12/11 05:04:25;;;;;;;0.15;0.15;;;19.10;48.30;;;;;;5148248;27;45799;-68
2023/12/11 05:06:52;;;;;;;0.10;0.10;;;19.10;48.80;;;;;;5148189;27;45329;-68
2023/12/11 05:09:19;;;;;;;0.10;0.10;;;19.10;48.10;;;;;;5148397;27;45170;-68
2023/12/11 05:11:45;;;;;;;0.13;0.13;;;19.20;48.10;;;;;;5148568;27;45401;-68
2023/12/11 05:14:12;;;;;;;0.10;0.10;;;19.20;47.90;;;;;;5148022;27;47326;-68
2023/12/11 05:16:39;;;;;;;0.20;0.20;;;19.30;48.00;;;;;;5147512;27;45377;-68
2023/12/11 05:19:08;;;;;;;0.60;0.30;;;19.30;47.90;;;;;;5147600;27;45380;-68
2023/12/11 05:21:35;;;;;;;0.28;0.20;;;19.30;47.80;;;;;;5148470;27;45217;-69
2023/12/11 05:24:01;;;;;;;0.25;0.25;;;19.30;47.70;;;;;;5147934;27;46285;-69
2023/12/11 05:26:28;;;;;;;0.20;0.20;;;19.40;47.70;;;;;;5147728;27;45314;-69
2023/12/11 05:28:55;;;;;;;0.13;0.13;;;19.40;47.70;;;;;;5148295;27;45410;-68
2023/12/11 05:31:22;;;;;;;0.25;0.25;;;19.40;47.70;;;;;;5151627;27;45450;-68
2023/12/11 05:33:49;;;;;;;0.28;0.20;;;19.50;47.60;;;;;;5151498;27;45301;-68
2023/12/11 05:36:17;;;;;;;0.20;0.20;;;19.50;47.50;;;;;;5151209;27;45340;-68
2023/12/11 05:38:44;;;;;;;0.35;0.30;;;19.50;47.50;;;;;;5151582;27;45444;-68
2023/12/11 05:41:11;;;;;;;0.43;0.28;;;19.50;47.50;;;;;;5151596;27;45429;-68
2023/12/11 05:43:37;;;;;;;0.47;0.40;;;19.50;47.40;;;;;;5151204;27;45497;-69
2023/12/11 05:46:05;;;;;;;0.10;0.10;;;19.60;47.50;;;;;;5151297;27;45263;-68
2023/12/11 05:48:32;;;;;;;0.20;0.20;;;19.60;47.50;;;;;;5151642;27;45439;-68
2023/12/11 05:50:59;;;;;;;0.20;0.20;;;19.60;47.40;;;;;;5151427;27;45491;-69
2023/12/11 05:53:27;;;;;;;0.20;0.20;;;19.60;47.30;;;;;;5151412;27;46525;-69
2023/12/11 05:55:54;;;;;;;0.20;0.20;;;19.60;47.40;;;;;;5150914;27;45283;-69
2023/12/11 05:58:21;;;;;;;0.25;0.20;;;19.70;47.30;;;;;;5151275;27;45392;-68
2023/12/11 06:00:48;;;;;;;0.17;0.17;;;19.70;47.30;;;;;;5150628;27;45420;-68
2023/12/11 06:03:15;;;;;;;0.28;0.28;;;19.70;47.30;;;;;;5151136;27;45461;-69
2023/12/11 06:05:42;;;;;;;0.70;0.13;;;19.70;47.20;;;;;;5150570;27;45356;-68
2023/12/11 06:08:09;;;;;;;0.10;0.10;;;19.80;47.30;;;;;;5151393;27;45345;-68
2023/12/11 06:10:37;;;;;;;0.20;0.13;;;19.80;47.30;;;;;;5150864;27;45394;-68
2023/12/11 06:13:04;;;;;;;0.75;0.30;;;19.80;47.20;;;;;;5150427;27;47343;-68
2023/12/11 06:15:30;;;;;;;0.22;0.15;;;19.80;47.20;;;;;;5150004;27;45352;-68
2023/12/11 06:17:57;;;;;;;0.20;0.20;;;19.80;47.20;;;;;;5150376;27;45390;-68
2023/12/11 06:20:24;;;;;;;0.28;0.20;;;19.80;47.20;;;;;;5151031;27;45391;-68
2023/12/11 06:22:51;;;;;;;0.30;0.30;;;19.80;47.20;;;;;;5150323;27;46368;-68
2023/12/11 06:25:18;;;;;;;0.30;0.10;;;19.90;47.20;;;;;;5147343;27;45416;-68
2023/12/11 06:27:46;;;;;;;0.22;0.22;;;19.90;47.20;;;;;;5150376;27;45294;-68
2023/12/11 06:30:14;;;;;;;0.30;0.30;;;19.90;47.10;;;;;;5150686;27;45132;-68
2023/12/11 06:32:40;;;;;;;1.45;0.25;;;19.90;47.10;;;;;;5150107;27;45484;-69
2023/12/11 06:35:08;;;;;;;0.20;0.20;;;19.90;47.10;;;;;;5150127;27;45264;-67
2023/12/11 06:37:34;;;;;;;0.13;0.13;;;19.90;47.10;;;;;;5149817;27;45300;-68
2023/12/11 06:40:03;;;;;;;0.30;0.30;;;19.90;47.10;;;;;;5150349;27;45388;-67
2023/12/11 06:42:32;;;;;;;0.60;0.20;;;20.00;47.10;;;;;;5148570;27;47008;-68
2023/12/11 06:45:00;;;;;;;0.20;0.20;;;20.00;47.00;;;;;;5149398;27;45383;-67
2023/12/11 06:47:27;;;;;;;0.20;0.20;;;20.00;47.00;;;;;;5150056;27;45435;-67
2023/12/11 06:49:54;;;;;;;0.15;0.15;;;20.00;47.00;;;;;;5150458;27;45272;-67
2023/12/11 06:52:21;;;;;;;0.10;0.10;;;20.00;47.00;;;;;;5149548;27;46662;-67
2023/12/11 06:54:48;;;;;;;0.20;0.20;;;20.00;47.10;;;;;;5149744;27;45645;-67
2023/12/11 06:57:15;;;;;;;0.52;0.20;;;20.00;47.10;;;;;;5149894;27;45382;-70
2023/12/11 06:59:42;;;;;;;0.47;0.40;;;20.00;47.00;;;;;;5149953;27;45449;-67
2023/12/11 07:02:10;;;;;;;0.30;0.30;;;20.10;47.00;;;;;;5149348;27;47400;-67
2023/12/11 07:04:37;;;;;;;0.35;0.20;;;20.10;47.00;;;;;;5149383;27;45376;-67
2023/12/11 07:07:04;;;;;;;0.55;0.10;;;20.10;46.90;;;;;;5149511;27;45373;-70
2023/12/11 07:09:31;;;;;;;0.10;0.10;;;20.10;47.00;;;;;;5150074;27;45369;-69
2023/12/11 07:11:58;;;;;;;0.32;0.28;;;20.10;47.00;;;;;;5149306;27;45300;-68
2023/12/11 07:14:25;;;;;;;0.10;0.10;;;20.10;47.00;;;;;;5149221;27;45291;-68
2023/12/11 07:16:51;;;;;;;0.32;0.15;;;20.10;46.90;;;;;;5149375;27;45329;-67
2023/12/11 07:19:20;;;;;;;0.10;0.10;;;20.20;47.00;;;;;;5149923;27;45629;-66
2023/12/11 07:21:47;;;;;;;0.40;0.22;;;20.20;47.00;;;;;;5149362;27;46839;-67
2023/12/11 07:24:14;;;;;;;0.15;0.15;;;20.20;46.90;;;;;;5149247;27;45191;-68
2023/12/11 07:26:41;;;;;;;0.10;0.10;;;20.20;46.90;;;;;;5148939;27;45247;-69
2023/12/11 07:29:08;;;;;;;2.05;0.30;;;20.20;46.90;;;;;;5149540;27;45533;-68
2023/12/11 07:31:35;;;;;;;0.20;0.20;;;20.20;47.00;;;;;;5148958;27;45455;-68
2023/12/11 07:34:02;;;;;;;5.05;0.30;;;20.20;47.00;;;;;;5149111;27;45240;-68
2023/12/11 07:36:30;;;;;;;0.65;0.32;;;20.20;47.10;;;;;;5148632;27;45400;-69
2023/12/11 07:38:57;;;;;;;0.05;0.05;;;20.10;47.10;;;;;;5149397;27;45421;-68
2023/12/11 07:41:24;;;;;;;0.25;0.25;;;20.10;47.10;;;;;;5148823;27;46968;-67
2023/12/11 07:43:51;;;;;;;0.88;0.30;;;20.10;47.20;;;;;;5148792;27;45347;-68
2023/12/11 07:46:18;;;;;;;3.03;0.20;;;20.10;47.30;;;;;;5148776;27;45511;-68
2023/12/11 07:48:45;;;;;;;0.65;0.40;;;20.10;47.30;;;;;;5149269;27;45398;-69
2023/12/11 07:51:18;;;;;;;0.30;0.30;;;20.10;47.40;;;;;;5148794;27;47571;-69
2023/12/11 07:53:46;;;;;;;0.20;0.20;;;20.00;47.40;;;;;;5148163;27;45274;-69
2023/12/11 07:56:19;;;;;;;1.23;0.38;;;20.00;47.50;;;;;;5148466;27;45352;-69
2023/12/11 07:58:46;;;;;;;0.20;0.20;;;20.00;47.60;;;;;;5149061;27;45409;-69
2023/12/11 08:01:13;;;;;;;0.32;0.20;;;20.00;47.60;;;;;;5148819;27;45880;-68
2023/12/11 08:03:39;;;;;;;0.50;0.20;;;20.00;47.70;;;;;;5148753;27;45355;-68
2023/12/11 08:06:08;;;;;;;0.10;0.10;;;19.90;48.30;;;;;;5145906;27;45355;-69
2023/12/11 08:08:40;;;;;;;0.13;0.13;;;19.90;47.80;;;;;;5149041;27;45378;-69
2023/12/11 08:11:15;;;;;;;1.83;0.35;;;19.90;47.90;;;;;;5148330;27;45454;-69
2023/12/11 08:13:42;;;;;;;0.90;0.20;;;19.90;47.90;;;;;;5148348;27;45392;-68
2023/12/11 08:16:09;;;;;;;0.20;0.20;;;19.90;48.00;;;;;;5148337;27;45383;-69
2023/12/11 08:18:36;;;;;;;1.15;0.20;;;19.80;48.10;;;;;;5148496;27;45285;-69
2023/12/11 08:21:05;;;;;;;2.22;0.30;;;19.80;48.70;;;;;;5148393;27;46352;-69
2023/12/11 08:23:32;;;;;;;0.30;0.30;;;19.80;48.20;;;;;;5148306;27;45354;-69
2023/12/11 08:25:58;;;;;;;0.10;0.10;;;19.80;48.30;;;;;;5148490;27;45409;-69
2023/12/11 08:28:27;;;;;;;0.45;0.30;;;19.80;48.30;;;;;;5149015;27;45284;-69
2023/12/11 08:30:55;;;;;;;0.80;0.30;;;19.70;48.90;;;;;;5148461;27;46610;-69
2023/12/11 08:33:22;;;;;;;0.35;0.17;;;19.70;48.30;;;;;;5148403;27;45479;-69
2023/12/11 08:35:48;;;;;;;1.85;0.40;;;19.70;48.40;;;;;;5148152;27;45361;-69
2023/12/11 08:38:16;;;;;;;0.30;0.20;;;19.70;48.40;;;;;;5153660;27;45555;-69
2023/12/11 08:40:44;;;;;;;0.52;0.52;;;19.70;48.50;;;;;;5167051;27;46436;-69
2023/12/11 08:43:12;;;;;;;1.02;0.30;;;19.70;48.60;;;;;;5156958;27;45497;-68
2023/12/11 08:45:40;;;;;;;0.50;0.17;;;19.70;48.70;;;;;;5168787;27;45372;-69
2023/12/11 08:48:07;;;;;;;1.23;0.22;;;19.60;48.60;;;;;;5164399;27;45398;-69
2023/12/11 08:50:34;;;;;;;1.20;0.30;;;19.60;48.60;;;;;;5169203;27;46283;-68
2023/12/11 08:53:01;;;;;;;0.30;0.30;;;19.60;48.70;;;;;;5160501;27;45574;-70
2023/12/11 08:55:28;;;;;;;1.27;0.43;;;19.60;48.70;;;;;;5159604;27;45443;-70
2023/12/11 08:57:55;;;;;;;4.53;0.40;;;19.60;48.80;;;;;;5161717;27;45546;-69
2023/12/11 09:00:22;;;;;;;2.85;0.40;;;19.60;48.90;;;;;;5149866;27;46410;-70
2023/12/11 09:02:51;;;;;;;0.52;0.30;;;19.60;49.10;;;;;;5156058;27;45356;-69
2023/12/11 09:05:18;;;;;;;1.25;0.30;;;19.60;49.20;;;;;;5146209;27;45385;-69
2023/12/11 09:07:45;;;;;;;0.30;0.30;;;19.60;49.10;;;;;;5149762;27;45510;-69
2023/12/11 09:10:12;;;;;;;0.98;0.20;;;19.60;49.10;;;;;;5150902;27;46460;-69
2023/12/11 09:12:39;;;;;;;0.55;0.38;;;19.60;49.10;;;;;;5160010;27;44787;-67
2023/12/11 09:15:07;;;;;;;1.77;0.30;;;19.60;49.20;;;;;;5153337;27;45489;-67
2023/12/11 09:17:34;;;;;;;0.75;0.35;;;19.60;49.30;;;;;;5159671;27;45559;-68
2023/12/11 09:20:04;;;;;;;0.20;0.20;;;19.60;49.30;;;;;;5147165;27;45460;-68
2023/12/11 09:22:30;;;;;;;0.47;0.30;;;19.50;49.30;;;;;;5150582;27;45571;-68
2023/12/11 09:24:56;;;;;;;1.90;0.30;;;19.50;49.40;;;;;;5152246;27;45436;-68
2023/12/11 09:27:23;;;;;;;0.55;0.40;;;19.50;49.40;;;;;;5154135;27;45320;-67
2023/12/11 09:29:50;;;;;;;2.40;0.40;;;19.50;49.60;;;;;;5168011;27;45479;-67
2023/12/11 09:32:17;;;;;;;2.13;0.30;;;19.50;49.60;;;;;;5163060;27;45166;-65
2023/12/11 09:34:44;;;;;;;3.92;0.30;;;19.50;49.70;;;;;;5157734;27;45391;-66
2023/12/11 09:37:12;;;;;;;1.35;0.20;;;19.50;49.70;;;;;;5163673;27;45417;-68
2023/12/11 09:39:39;;;;;;;0.25;0.22;;;19.50;49.80;;;;;;5147032;27;46370;-67
2023/12/11 09:42:06;;;;;;;3.30;0.35;;;19.50;49.70;;;;;;5146910;27;45250;-67
2023/12/11 09:44:33;;;;;;;0.30;0.30;;;19.50;49.80;;;;;;5147263;27;45296;-68
2023/12/11 09:47:04;;;;;;;6.18;0.47;;;19.50;50.30;;;;;;5147490;27;45425;-69
2023/12/11 09:49:30;;;;;;;2.65;0.50;;;19.50;49.90;;;;;;5147873;27;46355;-73
2023/12/11 09:51:58;;;;;;;0.65;0.25;;;19.60;50.80;;;;;;5147718;27;45602;-72
2023/12/11 09:54:26;;;;;;;2.10;0.70;;;19.60;50.10;;;;;;5154043;27;45451;-73
2023/12/11 09:56:53;;;;;;;0.60;0.60;;;19.60;49.90;;;;;;5151844;27;45364;-70
2023/12/11 09:59:20;;;;;;;1.58;0.43;;;19.70;49.90;;;;;;5155200;27;45414;-73
2023/12/11 10:01:48;;;;;;;2.00;0.65;;;19.70;50.50;;;;;;5150295;27;45263;-70
2023/12/11 10:04:15;;;;;;;1.52;0.50;;;19.70;49.80;;;;;;5155593;27;45427;-68
2023/12/11 10:06:42;;;;;;;3.92;0.57;;;19.80;49.80;;;;;;5157774;27;45384;-68
2023/12/11 10:09:08;;;;;;;3.20;0.70;;;19.80;49.80;;;;;;5147130;27;45510;-70
2023/12/11 10:11:37;;;;;;;2.25;0.43;;;19.80;49.80;;;;;;5158600;27;45416;-66
2023/12/11 10:14:11;;;;;;;5.85;1.30;;;19.90;49.80;;;;;;5163763;27;45138;-65
2023/12/11 10:16:38;;;;;;;2.15;0.82;;;19.90;49.80;;;;;;5159310;27;45401;-65
2023/12/11 10:19:05;;;;;;;5.35;0.75;;;19.90;49.70;;;;;;5156403;27;45364;-66
2023/12/11 10:21:39;;;;;;;0.93;0.70;;;19.90;49.60;;;;;;5157842;27;45482;-66
2023/12/11 10:24:07;;;;;;;1.85;0.47;;;20.00;49.70;;;;;;5161554;27;45415;-69
2023/12/11 10:26:39;;;;;;;0.50;0.50;;;20.00;49.70;;;;;;5159104;27;45602;-65
2023/12/11 10:29:21;;;;;;;1.15;0.50;;;20.00;49.70;;;;;;5163500;27;46392;-69
2023/12/11 10:31:48;;;;;;;2.13;0.52;;;20.00;49.90;;;;;;5157647;27;45338;-69
2023/12/11 10:34:14;;;;;;;3.92;0.52;;;20.00;49.90;;;;;;5157785;27;45427;-67
2023/12/11 10:36:49;;;;;;;2.90;0.50;;;20.00;49.70;;;;;;5164084;27;45440;-67
2023/12/11 10:39:16;;;;;;;5.93;0.80;;;20.00;49.90;;;;;;5156257;27;47698;-68
2023/12/11 10:41:44;;;;;;;3.13;0.75;;;20.00;49.90;;;;;;5156806;27;45496;-68
2023/12/11 10:44:26;;;;;;;4.70;0.85;;;20.00;50.00;;;;;;5160532;27;45411;-68
2023/12/11 10:46:54;;;;;;;1.55;0.60;;;20.00;49.90;;;;;;5168776;27;45365;-69
2023/12/11 10:49:22;;;;;;;1.98;0.60;;;20.10;49.90;;;;;;5167333;27;46709;-69
2023/12/11 10:51:49;;;;;;;7.20;1.08;;;20.10;49.90;;;;;;5152629;27;45316;-69
2023/12/11 10:54:16;;;;;;;4.35;0.60;;;20.10;50.10;;;;;;5154774;27;45486;-65
2023/12/11 10:56:43;;;;;;;2.22;0.70;;;20.10;49.90;;;;;;5160087;27;45518;-67
2023/12/11 10:59:10;;;;;;;3.55;0.80;;;20.10;49.90;;;;;;5156127;27;46370;-66
2023/12/11 11:01:39;;;;;;;5.97;0.80;;;20.10;49.80;;;;;;5162507;27;45437;-67
2023/12/11 11:04:06;;;;;;;0.68;0.57;;;20.20;49.90;;;;;;5155309;27;45583;-69
2023/12/11 11:06:33;;;;;;;0.98;0.40;;;20.20;49.90;;;;;;5154740;27;45438;-69
2023/12/11 11:09:02;;;;;;;1.67;0.65;;;20.20;49.90;;;;;;5155514;27;45848;-67
2023/12/11 11:11:32;;;;;;;5.18;0.63;;;20.20;49.80;;;;;;5160548;27;45346;-68
2023/12/11 11:14:15;;;;;;;1.10;0.40;;;20.20;49.70;;;;;;5163311;27;45406;-66
2023/12/11 11:16:56;;;;;;;5.38;1.02;;;20.20;49.90;;;;;;5156310;27;46354;-67
2023/12/11 11:19:24;;;;;;;3.53;0.90;;;20.20;50.10;;;;;;5153589;27;45497;-69
2023/12/11 11:22:22;;;;;;;4.18;1.00;;;20.20;50.20;;;;;;5148694;27;45558;-69
2023/12/11 11:24:49;;;;;;;5.85;0.80;;;20.20;49.90;;;;;;5157490;27;45512;-66
2023/12/11 11:27:49;;;;;;;3.15;0.50;;;20.20;50.00;;;;;;5147089;27;45531;-68
2023/12/11 11:30:32;;;;;;;6.80;0.70;;;20.20;50.00;;;;;;5108021;27;45449;-70
2023/12/11 11:33:01;;;;;;;5.43;1.05;;;20.20;50.00;;;;;;5120101;27;45272;-71
2023/12/11 11:35:48;;;;;;;1.45;0.82;;;20.20;50.10;;;;;;5139738;27;45458;-67
2023/12/11 11:38:16;;;;;;;4.65;0.77;;;20.20;50.60;;;;;;5161825;27;45528;-71
2023/12/11 11:40:43;;;;;;;4.70;0.80;;;20.20;50.00;;;;;;5152308;27;46337;-71
2023/12/11 11:43:10;;;;;;;6.72;1.23;;;20.20;50.00;;;;;;5148162;27;45496;-69
2023/12/11 11:45:37;;;;;;;2.58;0.70;;;20.30;50.20;;;;;;5148440;27;45494;-70
2023/12/11 11:48:06;;;;;;;2.17;0.55;;;20.30;50.00;;;;;;5149116;27;45560;-70
2023/12/11 11:50:33;;;;;;;2.05;0.50;;;20.30;49.90;;;;;;5147485;27;46406;-71
2023/12/11 11:53:02;;;;;;;2.08;1.05;;;20.30;50.00;;;;;;5152567;27;45423;-72
2023/12/11 11:55:29;;;;;;;1.55;0.70;;;20.30;50.00;;;;;;5153270;27;45491;-68
2023/12/11 11:57:56;;;;;;;4.25;0.70;;;20.30;49.90;;;;;;5153932;27;45602;-68
2023/12/11 12:00:23;;;;;;;1.00;0.60;;;20.30;50.00;;;;;;5158402;27;45571;-67
2023/12/11 12:02:56;;;;;;;2.42;0.55;;;20.30;50.30;;;;;;5152928;27;45393;-69
2023/12/11 12:05:24;;;;;;;1.10;0.70;;;20.20;50.30;;;;;;5157427;27;45331;-68
2023/12/11 12:07:51;;;;;;;3.42;0.98;;;20.30;50.20;;;;;;5156217;27;45450;-66
2023/12/11 12:10:18;;;;;;;4.15;0.55;;;20.20;50.20;;;;;;5151682;27;45485;-67
2023/12/11 12:12:49;;;;;;;2.00;1.02;;;20.20;50.20;;;;;;5154291;27;45356;-66
2023/12/11 12:15:16;;;;;;;2.33;0.90;;;20.20;50.20;;;;;;5158546;27;45337;-65
2023/12/11 12:17:44;;;;;;;2.88;0.90;;;20.20;50.20;;;;;;5152619;27;45446;-66
2023/12/11 12:20:11;;;;;;;2.40;0.80;;;20.20;50.20;;;;;;5154426;27;47344;-67
2023/12/11 12:22:39;;;;;;;3.17;0.70;;;20.10;50.80;;;;;;5151550;27;45251;-66
2023/12/11 12:25:14;;;;;;;3.20;1.05;;;20.10;50.20;;;;;;5161635;27;45452;-67
2023/12/11 12:27:41;;;;;;;0.90;0.60;;;20.10;50.30;;;;;;5152348;27;45429;-67
2023/12/11 12:30:09;;;;;;;2.85;1.10;;;20.10;50.40;;;;;;5163130;27;45466;-67
2023/12/11 12:32:36;;;;;;;0.80;0.80;;;20.00;50.30;;;;;;5152407;27;45393;-67
2023/12/11 12:35:04;;;;;;;1.60;0.90;;;20.00;50.50;;;;;;5164394;27;45548;-67
2023/12/11 12:37:30;;;;;;;2.42;1.10;;;20.00;50.40;;;;;;5169832;27;45257;-67
2023/12/11 12:39:58;;;;;;;1.95;0.95;;;20.00;50.50;;;;;;5162007;27;46348;-66
2023/12/11 12:42:30;;;;;;;3.03;1.13;;;20.00;50.50;;;;;;5163266;27;45378;-66
2023/12/11 12:44:56;;;;;;;2.22;1.80;;;20.00;50.50;;;;;;5149114;27;45375;-66
2023/12/11 12:47:23;;;;;;;5.22;2.63;;;19.90;50.50;;;;;;5149228;27;45232;-67
2023/12/11 12:49:50;;;;;;;6.45;3.40;;;19.90;50.80;;;;;;5148582;27;45287;-66